Admiralengracht — PCDE — position and weather

sailwx.info

Track history (hours):
 
Tides and Currents Weather Stations Pressure Air Temp Water Temp Dewpoint Dewpoint Depression Visibility Wind Speed Wind Dir Waves Ship Positions

Admiralengracht

Last reported at 2018-Jul-22 16:24 UTC. Time now 2018-Jul-22 16:35 UTC.
Position N 54°33' E 014°10'.

Length 130 m; beam 19 m; draft 9 m.

Type: Ship. MMSI: 244170283.

Date/timePositionNaut miles runAvg speedWind from/ knotsBaromVisibWave heightAir tempDewpointWater temp
2018-Jul-22 16:24N 54°33' E 014°10'0 0.6
2018-Jul-22 15:59N 54°33' E 014°11'2 3.8
2018-Jul-22 15:27N 54°34' E 014°07'1 1.2
2018-Jul-22 14:27N 54°34' E 014°09'1 2.3
2018-Jul-22 14:00N 54°34' E 014°11'2 3.7
2018-Jul-22 13:30N 54°34' E 014°08'2 3.4
2018-Jul-22 13:00N 54°34' E 014°05'2 3.9
2018-Jul-22 12:26N 54°34' E 014°09'2 3.8
2018-Jul-22 12:00N 54°34' E 014°12'0 0.5
2018-Jul-22 11:30N 54°34' E 014°11'2 4.0
2018-Jul-22 11:01N 54°34' E 014°14'1 2.9
2018-Jul-22 10:30N 54°35' E 014°17'2 4.0
2018-Jul-22 10:00N 54°34' E 014°14'2 3.9
2018-Jul-22 09:30N 54°34' E 014°10'1 2.8
2018-Jul-22 09:00N 54°34' E 014°13'2 3.9
2018-Jul-22 08:30N 54°35' E 014°16'0 0.5
2018-Jul-22 08:00N 54°34' E 014°16'2 3.9
2018-Jul-22 07:30N 54°34' E 014°12'1 1.8
2018-Jul-22 07:00N 54°33' E 014°11'2 3.5
2018-Jul-22 06:30N 54°34' E 014°14'2 3.4
2018-Jul-22 06:01N 54°34' E 014°17'0 0.7
2018-Jul-22 05:30N 54°34' E 014°16'2 3.7
2018-Jul-22 04:58N 54°33' E 014°13'2 3.7
2018-Jul-22 04:30N 54°33' E 014°10'5 3.7
2018-Jul-22 03:15N 54°34' E 014°18'6 0.9
2018-Jul-21 20:47N 54°34' E 014°08'2 3.8
2018-Jul-21 20:17N 54°33' E 014°04'1 3.7
2018-Jul-21 20:00N 54°33' E 014°03'2 3.8
2018-Jul-21 19:23N 54°31' E 014°01'0 0.6
2018-Jul-21 18:56N 54°31' E 014°01'0 0.8
2018-Jul-21 18:26N 54°30' E 014°01'3 6.0
2018-Jul-21 17:58N 54°28' E 013°59'5 3.5
2018-Jul-21 16:38N 54°24' E 013°55'1 3.4
2018-Jul-21 16:12N 54°25' E 013°56'1 4.2
2018-Jul-21 15:55N 54°26' E 013°57'1 0.4
2018-Jul-21 14:22N 54°26' E 013°56'0 0.3
2018-Jul-21 13:38N 54°26' E 013°56'1 3.9
2018-Jul-21 13:15N 54°24' E 013°55'0 0.5
2018-Jul-21 13:00N 54°25' E 013°55'0 0.3
2018-Jul-21 11:24N 54°24' E 013°54'3 4.1
2018-Jul-21 10:34N 54°27' E 013°57'2 3.7
2018-Jul-21 10:04N 54°26' E 013°55'1 3.9
2018-Jul-21 09:54N 54°25' E 013°55'0 0.4
2018-Jul-21 09:30N 54°25' E 013°54'0 0.0
2018-Jul-20 23:05N 54°25' E 013°55'1 4.2
2018-Jul-20 22:47N 54°26' E 013°56'2 0.8
2018-Jul-20 20:45N 54°24' E 013°55'1 2.0
2018-Jul-20 20:17N 54°25' E 013°56'1 0.9
2018-Jul-20 18:44N 54°24' E 013°55'1 3.5
2018-Jul-20 18:30N 54°25' E 013°55'3 3.1
2018-Jul-20 17:42N 54°27' E 013°58'3 0.2
2018-Jul-20 00:58N 54°24' E 013°54'2 3.0
2018-Jul-20 00:23N 54°26' E 013°56'2 0.8
2018-Jul-19 22:05N 54°27' E 013°58'1 2.9
2018-Jul-19 21:52N 54°26' E 013°58'3 4.0
2018-Jul-19 21:09N 54°24' E 013°55'1 3.4
2018-Jul-19 20:58N 54°24' E 013°55'2 4.0
2018-Jul-19 20:26N 54°26' E 013°58'0 0.6
2018-Jul-19 19:57N 54°26' E 013°57'3 3.8
2018-Jul-19 19:15N 54°24' E 013°54'1 3.8
2018-Jul-19 18:59N 54°25' E 013°55'2 3.9
2018-Jul-19 18:30N 54°26' E 013°57'1 1.4
2018-Jul-19 17:54N 54°26' E 013°56'1 1.7
2018-Jul-19 17:15N 54°25' E 013°55'0 0.2
2018-Jul-19 15:49N 54°25' E 013°55'1 2.7
2018-Jul-19 15:28N 54°24' E 013°54'1 0.5
2018-Jul-19 13:46N 54°25' E 013°55'13 0.4
2018-Jul-18 08:19N 54°33' E 014°13'2 3.5
2018-Jul-18 07:46N 54°33' E 014°10'1 1.1
2018-Jul-18 06:30N 54°33' E 014°12'1 0.1
2018-Jul-17 16:18N 54°34' E 014°14'1 3.7
2018-Jul-17 16:00N 54°33' E 014°12'1 1.1
2018-Jul-17 15:30N 54°33' E 014°11'1 0.7
2018-Jul-17 13:35N 54°33' E 014°13'1 3.8
2018-Jul-17 13:14N 54°33' E 014°11'1 1.2
2018-Jul-17 12:21N 54°33' E 014°13'0 0.5
2018-Jul-17 11:37N 54°33' E 014°12'2 0.3
2018-Jul-17 05:16N 54°34' E 014°15'1 3.7
2018-Jul-17 04:54N 54°33' E 014°13'1 3.6
2018-Jul-17 04:30N 54°33' E 014°11'1 2.0
2018-Jul-17 03:53N 54°33' E 014°13'2 0.5
2018-Jul-17 00:14N 54°34' E 014°16'3 3.7
2018-Jul-16 23:29N 54°33' E 014°11'1 0.2
2018-Jul-16 17:29N 54°33' E 014°13'1 0.8
2018-Jul-16 16:07N 54°33' E 014°15'1 3.8
2018-Jul-16 15:50N 54°34' E 014°16'1 2.5
2018-Jul-16 15:30N 54°34' E 014°18'2 3.9
2018-Jul-16 15:01N 54°33' E 014°15'2 3.9
2018-Jul-16 14:31N 54°33' E 014°11'0 0.6
2018-Jul-16 14:00N 54°33' E 014°11'2 3.8
2018-Jul-16 13:30N 54°33' E 014°14'2 3.8
2018-Jul-16 13:00N 54°34' E 014°17'1 1.6
2018-Jul-16 12:31N 54°33' E 014°16'2 3.8
2018-Jul-16 12:00N 54°33' E 014°13'2 3.6
2018-Jul-16 11:29N 54°33' E 014°10'2 3.6
2018-Jul-16 11:00N 54°33' E 014°13'2 3.7
2018-Jul-16 10:30N 54°34' E 014°16'2 1.8
2018-Jul-16 09:17N 54°33' E 014°12'1 4.1
2018-Jul-16 09:00N 54°33' E 014°10'2 3.3
2018-Jul-16 08:30N 54°33' E 014°13'2 3.7
2018-Jul-16 08:01N 54°33' E 014°16'1 1.4
2018-Jul-16 07:30N 54°34' E 014°17'2 3.8
2018-Jul-16 07:00N 54°33' E 014°14'2 3.9
2018-Jul-16 06:31N 54°33' E 014°11'0 0.2
2018-Jul-16 05:59N 54°33' E 014°11'0 0.4
2018-Jul-16 05:29N 54°33' E 014°11'1 1.1
2018-Jul-16 05:00N 54°33' E 014°12'0 0.4
2018-Jul-16 04:30N 54°32' E 014°11'1 1.2
2018-Jul-16 04:00N 54°33' E 014°12'2 4.0
2018-Jul-16 03:30N 54°33' E 014°16'1 2.2
2018-Jul-16 03:00N 54°34' E 014°17'2 3.9
2018-Jul-16 02:30N 54°33' E 014°14'2 3.8
2018-Jul-16 02:01N 54°33' E 014°11'1 1.3
2018-Jul-16 01:16N 54°33' E 014°13'3 0.7
2018-Jul-15 21:42N 54°33' E 014°17'0 1.6
2018-Jul-15 21:27N 54°34' E 014°18'2 3.6
2018-Jul-15 20:56N 54°33' E 014°15'1 2.7
2018-Jul-15 20:30N 54°33' E 014°16'0 0.7
2018-Jul-15 20:00N 54°33' E 014°17'2 3.4
2018-Jul-15 19:29N 54°33' E 014°14'2 3.4
2018-Jul-15 19:00N 54°32' E 014°11'1 1.5
2018-Jul-15 18:28N 54°33' E 014°10'0 0.6
2018-Jul-15 17:58N 54°33' E 014°10'4 2.1
2018-Jul-15 16:02N 54°33' E 014°17'1 0.2
2018-Jul-15 11:43N 54°33' E 014°16'1 3.3
2018-Jul-15 11:23N 54°33' E 014°14'1 3.3
2018-Jul-15 10:59N 54°32' E 014°12'1 0.5
2018-Jul-15 09:51N 54°33' E 014°13'1 3.0
2018-Jul-15 09:28N 54°33' E 014°15'2 3.1
2018-Jul-15 08:52N 54°34' E 014°18'1 0.7
2018-Jul-15 07:22N 54°33' E 014°18'0 0.8
2018-Jul-15 07:01N 54°33' E 014°17'1 2.2
2018-Jul-15 06:28N 54°33' E 014°16'1 2.1
2018-Jul-15 05:51N 54°34' E 014°14'1 2.0
2018-Jul-15 05:26N 54°35' E 014°13'1 1.1
2018-Jul-15 04:07N 54°34' E 014°15'0 0.0
2018-Jul-15 02:08N 54°34' E 014°15'0 0.2
2018-Jul-15 01:55N 54°34' E 014°15'1 1.3
2018-Jul-15 01:16N 54°34' E 014°14'5 6.8
2018-Jul-15 00:34N 54°31' E 014°08'1 7.7
2018-Jul-15 00:28N 54°30' E 014°07'8 4.5
2018-Jul-14 22:35N 54°25' E 013°55'1 1.9
2018-Jul-14 21:52N 54°24' E 013°54'1 2.3
2018-Jul-14 21:29N 54°23' E 013°53'1 0.2
2018-Jul-14 16:08N 54°23' E 013°51'18 2.7
2018-Jul-14 09:27N 54°34' E 014°15'0 0.0
2018-Jul-14 08:36N 54°34' E 014°15'0 0.0
2018-Jul-14 08:30N 54°34' E 014°15'0 0.0
2018-Jul-14 07:53N 54°34' E 014°15'0 0.0
2018-Jul-14 05:52N 54°34' E 014°15'0 0.1
2018-Jul-14 03:09N 54°34' E 014°15'0 0.0
2018-Jul-14 02:50N 54°34' E 014°15'0 0.0
2018-Jul-14 02:18N 54°34' E 014°15'0 0.0
2018-Jul-14 02:01N 54°34' E 014°15'0 0.1
2018-Jul-14 01:22N 54°34' E 014°15'0 0.1
2018-Jul-14 01:01N 54°34' E 014°15'0 0.0
2018-Jul-14 00:13N 54°34' E 014°15'0 0.0
2018-Jul-13 23:58N 54°34' E 014°15'0 0.0
2018-Jul-13 23:28N 54°34' E 014°15'0 0.0
2018-Jul-13 22:53N 54°34' E 014°15'0 0.0
2018-Jul-13 22:07N 54°34' E 014°15'0 0.0
2018-Jul-13 21:51N 54°34' E 014°15'0 0.2
2018-Jul-13 21:25N 54°34' E 014°15'1 1.0
2018-Jul-13 20:16N 54°34' E 014°17'2 6.5
2018-Jul-13 19:58N 54°35' E 014°14'510.8
2018-Jul-13 19:30N 54°37' E 014°06'610.9
2018-Jul-13 18:56N 54°39' E 013°56'510.9
2018-Jul-13 18:30N 54°41' E 013°48'510.8
2018-Jul-13 18:00N 54°42' E 013°39'611.4
2018-Jul-13 17:28N 54°44' E 013°29'611.3
2018-Jul-13 16:54N 54°44' E 013°18'411.1
2018-Jul-13 16:30N 54°45' E 013°10'611.1
2018-Jul-13 15:59N 54°45' E 013°00'511.1
2018-Jul-13 15:30N 54°45' E 012°51'510.4
2018-Jul-13 15:00N 54°44' E 012°42'1810.6
2018-Jul-13 13:21N 54°33' E 012°18'410.6
2018-Jul-13 12:58N 54°29' E 012°16'510.5
2018-Jul-13 12:29N 54°25' E 012°12'510.6
2018-Jul-13 12:00N 54°21' E 012°06'510.2
2018-Jul-13 11:30N 54°16' E 012°03'510.5
2018-Jul-13 11:00N 54°11' E 012°05'3 5.0
2018-Jul-13 10:30N 54°09' E 012°06'0 0.0
2018-Jul-13 10:00N 54°09' E 012°06'0 0.0
2018-Jul-13 09:17N 54°09' E 012°06'0 0.0
2018-Jul-13 08:45N 54°09' E 012°06'0 0.0
2018-Jul-13 08:30N 54°09' E 012°06'0 0.1
2018-Jul-13 08:00N 54°09' E 012°06'0 0.2
2018-Jul-13 07:29N 54°09' E 012°06'0 0.0
2018-Jul-13 07:00N 54°09' E 012°06'0 0.0
2018-Jul-13 06:30N 54°09' E 012°06'0 0.0
2018-Jul-13 06:00N 54°09' E 012°06'0 0.0
2018-Jul-13 05:30N 54°09' E 012°06'0 0.0
2018-Jul-13 05:00N 54°09' E 012°06'0 0.0
2018-Jul-13 04:30N 54°09' E 012°06'0 0.0
2018-Jul-13 04:00N 54°09' E 012°06'0 0.0
2018-Jul-13 03:28N 54°09' E 012°06'0 0.0
2018-Jul-13 02:58N 54°09' E 012°06'0 0.0
2018-Jul-13 02:28N 54°09' E 012°06'0 0.0
2018-Jul-13 01:59N 54°09' E 012°06'0 0.0
2018-Jul-13 01:29N 54°09' E 012°06'0 0.0
2018-Jul-13 00:59N 54°09' E 012°06'0 0.0
2018-Jul-13 00:27N 54°09' E 012°06'0 0.0
2018-Jul-13 00:00N 54°09' E 012°06'0 0.0
2018-Jul-12 23:27N 54°09' E 012°06'0 0.0
2018-Jul-12 22:58N 54°09' E 012°06'0 0.0
2018-Jul-12 22:25N 54°09' E 012°06'0 0.0
2018-Jul-12 21:08N 54°09' E 012°06'0 0.0
2018-Jul-12 20:44N 54°09' E 012°06'0 0.0
2018-Jul-12 20:29N 54°09' E 012°06'0 0.0
2018-Jul-12 19:57N 54°09' E 012°06'  
Track history (hours):
 
Tides and Currents Weather Stations Pressure Air Temp Water Temp Dewpoint Dewpoint Depression Visibility Wind Speed Wind Dir Waves Ship Positions

Admiralengracht

Last reported at 2018-Jul-22 16:24 UTC. Time now 2018-Jul-22 16:35 UTC.
Position N 54°33' E 014°10'.

Length 130 m; beam 19 m; draft 9 m.

Type: Ship. MMSI: 244170283.

Date/timePositionNaut miles runAvg speedWind from/ knotsBaromVisibWave heightAir tempDewpointWater temp
2018-Jul-22 16:24N 54°33' E 014°10'0 0.6
2018-Jul-22 15:59N 54°33' E 014°11'2 3.8
2018-Jul-22 15:27N 54°34' E 014°07'1 1.2
2018-Jul-22 14:27N 54°34' E 014°09'1 2.3
2018-Jul-22 14:00N 54°34' E 014°11'2 3.7
2018-Jul-22 13:30N 54°34' E 014°08'2 3.4
2018-Jul-22 13:00N 54°34' E 014°05'2 3.9
2018-Jul-22 12:26N 54°34' E 014°09'2 3.8
2018-Jul-22 12:00N 54°34' E 014°12'0 0.5
2018-Jul-22 11:30N 54°34' E 014°11'2 4.0
2018-Jul-22 11:01N 54°34' E 014°14'1 2.9
2018-Jul-22 10:30N 54°35' E 014°17'2 4.0
2018-Jul-22 10:00N 54°34' E 014°14'2 3.9
2018-Jul-22 09:30N 54°34' E 014°10'1 2.8
2018-Jul-22 09:00N 54°34' E 014°13'2 3.9
2018-Jul-22 08:30N 54°35' E 014°16'0 0.5
2018-Jul-22 08:00N 54°34' E 014°16'2 3.9
2018-Jul-22 07:30N 54°34' E 014°12'1 1.8
2018-Jul-22 07:00N 54°33' E 014°11'2 3.5
2018-Jul-22 06:30N 54°34' E 014°14'2 3.4
2018-Jul-22 06:01N 54°34' E 014°17'0 0.7
2018-Jul-22 05:30N 54°34' E 014°16'2 3.7
2018-Jul-22 04:58N 54°33' E 014°13'2 3.7
2018-Jul-22 04:30N 54°33' E 014°10'5 3.7
2018-Jul-22 03:15N 54°34' E 014°18'6 0.9
2018-Jul-21 20:47N 54°34' E 014°08'2 3.8
2018-Jul-21 20:17N 54°33' E 014°04'1 3.7
2018-Jul-21 20:00N 54°33' E 014°03'2 3.8
2018-Jul-21 19:23N 54°31' E 014°01'0 0.6
2018-Jul-21 18:56N 54°31' E 014°01'0 0.8
2018-Jul-21 18:26N 54°30' E 014°01'3 6.0
2018-Jul-21 17:58N 54°28' E 013°59'5 3.5
2018-Jul-21 16:38N 54°24' E 013°55'1 3.4
2018-Jul-21 16:12N 54°25' E 013°56'1 4.2
2018-Jul-21 15:55N 54°26' E 013°57'1 0.4
2018-Jul-21 14:22N 54°26' E 013°56'0 0.3
2018-Jul-21 13:38N 54°26' E 013°56'1 3.9
2018-Jul-21 13:15N 54°24' E 013°55'0 0.5
2018-Jul-21 13:00N 54°25' E 013°55'0 0.3
2018-Jul-21 11:24N 54°24' E 013°54'3 4.1
2018-Jul-21 10:34N 54°27' E 013°57'2 3.7
2018-Jul-21 10:04N 54°26' E 013°55'1 3.9
2018-Jul-21 09:54N 54°25' E 013°55'0 0.4
2018-Jul-21 09:30N 54°25' E 013°54'0 0.0
2018-Jul-20 23:05N 54°25' E 013°55'1 4.2
2018-Jul-20 22:47N 54°26' E 013°56'2 0.8
2018-Jul-20 20:45N 54°24' E 013°55'1 2.0
2018-Jul-20 20:17N 54°25' E 013°56'1 0.9
2018-Jul-20 18:44N 54°24' E 013°55'1 3.5
2018-Jul-20 18:30N 54°25' E 013°55'3 3.1
2018-Jul-20 17:42N 54°27' E 013°58'3 0.2
2018-Jul-20 00:58N 54°24' E 013°54'2 3.0
2018-Jul-20 00:23N 54°26' E 013°56'2 0.8
2018-Jul-19 22:05N 54°27' E 013°58'1 2.9
2018-Jul-19 21:52N 54°26' E 013°58'3 4.0
2018-Jul-19 21:09N 54°24' E 013°55'1 3.4
2018-Jul-19 20:58N 54°24' E 013°55'2 4.0
2018-Jul-19 20:26N 54°26' E 013°58'0 0.6
2018-Jul-19 19:57N 54°26' E 013°57'3 3.8
2018-Jul-19 19:15N 54°24' E 013°54'1 3.8
2018-Jul-19 18:59N 54°25' E 013°55'2 3.9
2018-Jul-19 18:30N 54°26' E 013°57'1 1.4
2018-Jul-19 17:54N 54°26' E 013°56'1 1.7
2018-Jul-19 17:15N 54°25' E 013°55'0 0.2
2018-Jul-19 15:49N 54°25' E 013°55'1 2.7
2018-Jul-19 15:28N 54°24' E 013°54'1 0.5
2018-Jul-19 13:46N 54°25' E 013°55'13 0.4
2018-Jul-18 08:19N 54°33' E 014°13'2 3.5
2018-Jul-18 07:46N 54°33' E 014°10'1 1.1
2018-Jul-18 06:30N 54°33' E 014°12'1 0.1
2018-Jul-17 16:18N 54°34' E 014°14'1 3.7
2018-Jul-17 16:00N 54°33' E 014°12'1 1.1
2018-Jul-17 15:30N 54°33' E 014°11'1 0.7
2018-Jul-17 13:35N 54°33' E 014°13'1 3.8
2018-Jul-17 13:14N 54°33' E 014°11'1 1.2
2018-Jul-17 12:21N 54°33' E 014°13'0 0.5
2018-Jul-17 11:37N 54°33' E 014°12'2 0.3
2018-Jul-17 05:16N 54°34' E 014°15'1 3.7
2018-Jul-17 04:54N 54°33' E 014°13'1 3.6
2018-Jul-17 04:30N 54°33' E 014°11'1 2.0
2018-Jul-17 03:53N 54°33' E 014°13'2 0.5
2018-Jul-17 00:14N 54°34' E 014°16'3 3.7
2018-Jul-16 23:29N 54°33' E 014°11'1 0.2
2018-Jul-16 17:29N 54°33' E 014°13'1 0.8
2018-Jul-16 16:07N 54°33' E 014°15'1 3.8
2018-Jul-16 15:50N 54°34' E 014°16'1 2.5
2018-Jul-16 15:30N 54°34' E 014°18'2 3.9
2018-Jul-16 15:01N 54°33' E 014°15'2 3.9
2018-Jul-16 14:31N 54°33' E 014°11'0 0.6
2018-Jul-16 14:00N 54°33' E 014°11'2 3.8
2018-Jul-16 13:30N 54°33' E 014°14'2 3.8
2018-Jul-16 13:00N 54°34' E 014°17'1 1.6
2018-Jul-16 12:31N 54°33' E 014°16'2 3.8
2018-Jul-16 12:00N 54°33' E 014°13'2 3.6
2018-Jul-16 11:29N 54°33' E 014°10'2 3.6
2018-Jul-16 11:00N 54°33' E 014°13'2 3.7
2018-Jul-16 10:30N 54°34' E 014°16'2 1.8
2018-Jul-16 09:17N 54°33' E 014°12'1 4.1
2018-Jul-16 09:00N 54°33' E 014°10'2 3.3
2018-Jul-16 08:30N 54°33' E 014°13'2 3.7
2018-Jul-16 08:01N 54°33' E 014°16'1 1.4
2018-Jul-16 07:30N 54°34' E 014°17'2 3.8
2018-Jul-16 07:00N 54°33' E 014°14'2 3.9
2018-Jul-16 06:31N 54°33' E 014°11'0 0.2
2018-Jul-16 05:59N 54°33' E 014°11'0 0.4
2018-Jul-16 05:29N 54°33' E 014°11'1 1.1
2018-Jul-16 05:00N 54°33' E 014°12'0 0.4
2018-Jul-16 04:30N 54°32' E 014°11'1 1.2
2018-Jul-16 04:00N 54°33' E 014°12'2 4.0
2018-Jul-16 03:30N 54°33' E 014°16'1 2.2
2018-Jul-16 03:00N 54°34' E 014°17'2 3.9
2018-Jul-16 02:30N 54°33' E 014°14'2 3.8
2018-Jul-16 02:01N 54°33' E 014°11'1 1.3
2018-Jul-16 01:16N 54°33' E 014°13'3 0.7
2018-Jul-15 21:42N 54°33' E 014°17'0 1.6
2018-Jul-15 21:27N 54°34' E 014°18'2 3.6
2018-Jul-15 20:56N 54°33' E 014°15'1 2.7
2018-Jul-15 20:30N 54°33' E 014°16'0 0.7
2018-Jul-15 20:00N 54°33' E 014°17'2 3.4
2018-Jul-15 19:29N 54°33' E 014°14'2 3.4
2018-Jul-15 19:00N 54°32' E 014°11'1 1.5
2018-Jul-15 18:28N 54°33' E 014°10'0 0.6
2018-Jul-15 17:58N 54°33' E 014°10'4 2.1
2018-Jul-15 16:02N 54°33' E 014°17'1 0.2
2018-Jul-15 11:43N 54°33' E 014°16'1 3.3
2018-Jul-15 11:23N 54°33' E 014°14'1 3.3
2018-Jul-15 10:59N 54°32' E 014°12'1 0.5
2018-Jul-15 09:51N 54°33' E 014°13'1 3.0
2018-Jul-15 09:28N 54°33' E 014°15'2 3.1
2018-Jul-15 08:52N 54°34' E 014°18'1 0.7
2018-Jul-15 07:22N 54°33' E 014°18'0 0.8
2018-Jul-15 07:01N 54°33' E 014°17'1 2.2
2018-Jul-15 06:28N 54°33' E 014°16'1 2.1
2018-Jul-15 05:51N 54°34' E 014°14'1 2.0
2018-Jul-15 05:26N 54°35' E 014°13'1 1.1
2018-Jul-15 04:07N 54°34' E 014°15'0 0.0
2018-Jul-15 02:08N 54°34' E 014°15'0 0.2
2018-Jul-15 01:55N 54°34' E 014°15'1 1.3
2018-Jul-15 01:16N 54°34' E 014°14'5 6.8
2018-Jul-15 00:34N 54°31' E 014°08'1 7.7
2018-Jul-15 00:28N 54°30' E 014°07'8 4.5
2018-Jul-14 22:35N 54°25' E 013°55'1 1.9
2018-Jul-14 21:52N 54°24' E 013°54'1 2.3
2018-Jul-14 21:29N 54°23' E 013°53'1 0.2
2018-Jul-14 16:08N 54°23' E 013°51'18 2.7
2018-Jul-14 09:27N 54°34' E 014°15'0 0.0
2018-Jul-14 08:36N 54°34' E 014°15'0 0.0
2018-Jul-14 08:30N 54°34' E 014°15'0 0.0
2018-Jul-14 07:53N 54°34' E 014°15'0 0.0
2018-Jul-14 05:52N 54°34' E 014°15'0 0.1
2018-Jul-14 03:09N 54°34' E 014°15'0 0.0
2018-Jul-14 02:50N 54°34' E 014°15'0 0.0
2018-Jul-14 02:18N 54°34' E 014°15'0 0.0
2018-Jul-14 02:01N 54°34' E 014°15'0 0.1
2018-Jul-14 01:22N 54°34' E 014°15'0 0.1
2018-Jul-14 01:01N 54°34' E 014°15'0 0.0
2018-Jul-14 00:13N 54°34' E 014°15'0 0.0
2018-Jul-13 23:58N 54°34' E 014°15'0 0.0
2018-Jul-13 23:28N 54°34' E 014°15'0 0.0
2018-Jul-13 22:53N 54°34' E 014°15'0 0.0
2018-Jul-13 22:07N 54°34' E 014°15'0 0.0
2018-Jul-13 21:51N 54°34' E 014°15'0 0.2
2018-Jul-13 21:25N 54°34' E 014°15'1 1.0
2018-Jul-13 20:16N 54°34' E 014°17'2 6.5
2018-Jul-13 19:58N 54°35' E 014°14'510.8
2018-Jul-13 19:30N 54°37' E 014°06'610.9
2018-Jul-13 18:56N 54°39' E 013°56'510.9
2018-Jul-13 18:30N 54°41' E 013°48'510.8
2018-Jul-13 18:00N 54°42' E 013°39'611.4
2018-Jul-13 17:28N 54°44' E 013°29'611.3
2018-Jul-13 16:54N 54°44' E 013°18'411.1
2018-Jul-13 16:30N 54°45' E 013°10'611.1
2018-Jul-13 15:59N 54°45' E 013°00'511.1
2018-Jul-13 15:30N 54°45' E 012°51'510.4
2018-Jul-13 15:00N 54°44' E 012°42'1810.6
2018-Jul-13 13:21N 54°33' E 012°18'410.6
2018-Jul-13 12:58N 54°29' E 012°16'510.5
2018-Jul-13 12:29N 54°25' E 012°12'510.6
2018-Jul-13 12:00N 54°21' E 012°06'510.2
2018-Jul-13 11:30N 54°16' E 012°03'510.5
2018-Jul-13 11:00N 54°11' E 012°05'3 5.0
2018-Jul-13 10:30N 54°09' E 012°06'0 0.0
2018-Jul-13 10:00N 54°09' E 012°06'0 0.0
2018-Jul-13 09:17N 54°09' E 012°06'0 0.0
2018-Jul-13 08:45N 54°09' E 012°06'0 0.0
2018-Jul-13 08:30N 54°09' E 012°06'0 0.1
2018-Jul-13 08:00N 54°09' E 012°06'0 0.2
2018-Jul-13 07:29N 54°09' E 012°06'0 0.0
2018-Jul-13 07:00N 54°09' E 012°06'0 0.0
2018-Jul-13 06:30N 54°09' E 012°06'0 0.0
2018-Jul-13 06:00N 54°09' E 012°06'0 0.0
2018-Jul-13 05:30N 54°09' E 012°06'0 0.0
2018-Jul-13 05:00N 54°09' E 012°06'0 0.0
2018-Jul-13 04:30N 54°09' E 012°06'0 0.0
2018-Jul-13 04:00N 54°09' E 012°06'0 0.0
2018-Jul-13 03:28N 54°09' E 012°06'0 0.0
2018-Jul-13 02:58N 54°09' E 012°06'0 0.0
2018-Jul-13 02:28N 54°09' E 012°06'0 0.0
2018-Jul-13 01:59N 54°09' E 012°06'0 0.0
2018-Jul-13 01:29N 54°09' E 012°06'0 0.0
2018-Jul-13 00:59N 54°09' E 012°06'0 0.0
2018-Jul-13 00:27N 54°09' E 012°06'0 0.0
2018-Jul-13 00:00N 54°09' E 012°06'0 0.0
2018-Jul-12 23:27N 54°09' E 012°06'0 0.0
2018-Jul-12 22:58N 54°09' E 012°06'0 0.0
2018-Jul-12 22:25N 54°09' E 012°06'0 0.0
2018-Jul-12 21:08N 54°09' E 012°06'0 0.0
2018-Jul-12 20:44N 54°09' E 012°06'0 0.0
2018-Jul-12 20:29N 54°09' E 012°06'0 0.0
2018-Jul-12 19:57N 54°09' E 012°06'  

Dump ship's entire track history